Time;durP1;ratioP1;P1;durP2;ratioP2;P2;SDS_P1;SDS_P2;PMS_P1;PMS_P2;Temp;Humidity;BMP_temperature;BMP_pressure;BME280_temperature;BME280_humidity;BME280_pressure;Samples;Min_cycle;Max_cycle;Signal;HPM_P1;HPM_P2
2023/10/22 00:00:56;;;;;;;2.65;0.55;;;;;;;12.85;100.00;99517.28;5053670;28;20041;-49
2023/10/22 00:03:24;;;;;;;1.92;0.60;;;;;;;12.91;100.00;99518.53;5052902;28;20056;-45
2023/10/22 00:05:53;;;;;;;3.08;0.70;;;;;;;12.92;100.00;99528.06;5052716;28;20048;-45
2023/10/22 00:08:21;;;;;;;3.63;0.70;;;;;;;12.91;100.00;99526.44;5050758;28;20041;-46
2023/10/22 00:10:51;;;;;;;3.97;0.90;;;;;;;12.89;100.00;99530.19;5051816;28;20396;-49
2023/10/22 00:13:19;;;;;;;5.72;1.10;;;;;;;12.83;100.00;99524.53;5053454;28;20102;-46
2023/10/22 00:15:47;;;;;;;4.75;0.88;;;;;;;12.73;100.00;99525.53;5053354;28;20045;-48
2023/10/22 00:18:15;;;;;;;1.65;0.50;;;;;;;12.77;100.00;99521.63;5053227;28;20057;-45
2023/10/22 00:20:44;;;;;;;3.88;0.70;;;;;;;12.73;100.00;99530.81;5051539;28;20079;-47
2023/10/22 00:23:12;;;;;;;4.60;0.82;;;;;;;12.82;100.00;99530.75;5053009;28;20048;-47
2023/10/22 00:25:40;;;;;;;2.88;0.90;;;;;;;12.79;100.00;99533.72;5053186;28;20052;-48
2023/10/22 00:28:09;;;;;;;3.53;0.70;;;;;;;12.76;100.00;99536.66;5053208;28;20044;-46
2023/10/22 00:30:37;;;;;;;4.53;1.00;;;;;;;12.77;100.00;99519.81;5053239;28;20041;-48
2023/10/22 00:33:06;;;;;;;4.47;0.80;;;;;;;12.76;100.00;99531.38;5053225;28;20057;-46
2023/10/22 00:35:35;;;;;;;5.38;0.90;;;;;;;12.71;100.00;99536.25;5052977;28;20099;-48
2023/10/22 00:38:03;;;;;;;3.50;0.70;;;;;;;12.72;100.00;99540.56;5053009;28;20048;-47
2023/10/22 00:40:31;;;;;;;5.43;1.10;;;;;;;12.70;100.00;99534.56;5052949;28;20051;-47
2023/10/22 00:43:04;;;;;;;3.22;0.70;;;;;;;12.69;100.00;99538.19;5052873;28;20056;-47
2023/10/22 00:45:38;;;;;;;3.78;0.70;;;;;;;12.66;100.00;99544.56;5052198;28;20136;-48
2023/10/22 00:48:07;;;;;;;3.83;0.75;;;;;;;12.73;100.00;99546.66;5049709;28;20057;-45
2023/10/22 00:50:39;;;;;;;3.10;0.70;;;;;;;12.73;100.00;99538.72;5049868;28;20063;-45
2023/10/22 00:53:08;;;;;;;2.45;0.73;;;;;;;12.67;100.00;99550.69;5052449;28;20443;-48
2023/10/22 00:55:39;;;;;;;3.35;0.77;;;;;;;12.71;100.00;99540.66;5052540;28;20037;-47
2023/10/22 00:58:08;;;;;;;3.85;0.90;;;;;;;12.75;100.00;99544.69;5052636;28;20049;-45
2023/10/22 01:00:38;;;;;;;5.93;1.00;;;;;;;12.72;100.00;99552.88;5052637;28;20495;-47
2023/10/22 01:03:06;;;;;;;3.25;0.77;;;;;;;12.69;100.00;99551.38;5051190;28;20088;-47
2023/10/22 01:05:37;;;;;;;4.28;1.08;;;;;;;12.69;100.00;99551.38;5052412;28;20033;-49
2023/10/22 01:08:06;;;;;;;3.00;0.82;;;;;;;12.72;100.00;99544.97;5049396;28;20052;-47
2023/10/22 01:10:35;;;;;;;3.90;0.77;;;;;;;12.65;100.00;99545.56;5050125;28;20041;-45
2023/10/22 01:13:04;;;;;;;2.60;0.70;;;;;;;12.67;100.00;99551.50;5052162;28;20058;-47
2023/10/22 01:15:33;;;;;;;3.38;0.77;;;;;;;12.67;100.00;99551.50;5052582;28;20397;-49
2023/10/22 01:18:03;;;;;;;6.28;1.20;;;;;;;12.68;100.00;99561.09;5049958;28;20067;-46
2023/10/22 01:20:32;;;;;;;5.47;1.30;;;;;;;12.65;100.00;99544.72;5048070;28;20118;-51
2023/10/22 01:23:01;;;;;;;5.13;0.80;;;;;;;12.66;100.00;99559.56;5052122;28;20056;-49
2023/10/22 01:25:31;;;;;;;4.95;0.98;;;;;;;12.65;100.00;99553.47;5052203;28;20045;-48
2023/10/22 01:27:59;;;;;;;4.50;1.30;;;;;;;12.64;100.00;99551.81;5050102;28;20609;-47
2023/10/22 01:30:30;;;;;;;2.50;1.00;;;;;;;12.59;100.00;99559.31;5048432;28;20041;-46
2023/10/22 01:32:58;;;;;;;3.58;0.70;;;;;;;12.55;100.00;99568.50;5051291;28;20403;-48
2023/10/22 01:35:26;;;;;;;3.05;0.70;;;;;;;12.54;100.00;99564.19;5051767;28;20071;-47
2023/10/22 01:37:54;;;;;;;2.58;0.98;;;;;;;12.55;100.00;99572.94;5052186;28;20510;-45
2023/10/22 01:40:23;;;;;;;5.25;1.67;;;;;;;12.56;100.00;99577.25;5051931;28;20128;-55
2023/10/22 01:42:53;;;;;;;5.18;0.95;;;;;;;12.50;100.00;99562.81;5051910;28;20049;-55
2023/10/22 01:45:21;;;;;;;4.50;1.00;;;;;;;12.46;100.00;99574.63;5052034;28;20052;-56
2023/10/22 01:47:50;;;;;;;4.07;1.10;;;;;;;12.50;100.00;99570.72;5051984;28;20434;-53
2023/10/22 01:50:21;;;;;;;3.08;0.80;;;;;;;12.52;100.00;99577.53;5050270;28;20037;-55
2023/10/22 01:52:49;;;;;;;4.18;1.15;;;;;;;12.48;100.00;99583.25;5048226;28;20079;-54
2023/10/22 01:55:18;;;;;;;4.60;1.27;;;;;;;12.50;100.00;99573.38;5050999;28;20086;-56
2023/10/22 01:57:46;;;;;;;5.45;1.10;;;;;;;12.52;100.00;99580.16;5051751;28;20180;-54
2023/10/22 02:00:17;;;;;;;2.15;0.90;;;;;;;12.50;100.00;99578.63;5051716;28;20052;-54
2023/10/22 02:02:45;;;;;;;3.33;1.00;;;;;;;12.56;100.00;99586.00;5050869;28;20684;-56
2023/10/22 02:05:13;;;;;;;3.47;0.93;;;;;;;12.55;100.00;99586.97;5047198;28;20414;-55
2023/10/22 02:07:41;;;;;;;3.67;1.02;;;;;;;12.52;100.00;99595.16;5048551;28;20049;-54
2023/10/22 02:10:10;;;;;;;4.97;1.10;;;;;;;12.48;100.00;99596.44;5050950;28;20152;-54
2023/10/22 02:12:38;;;;;;;3.15;1.20;;;;;;;12.46;100.00;99596.56;5051356;28;20044;-53
2023/10/22 02:15:07;;;;;;;3.35;1.10;;;;;;;12.47;100.00;99603.47;5048338;28;20064;-56
2023/10/22 02:17:37;;;;;;;3.45;0.75;;;;;;;12.52;100.00;99611.81;5050395;28;20507;-56
2023/10/22 02:20:08;;;;;;;3.90;1.00;;;;;;;12.45;100.00;99604.63;5051877;28;20055;-55
2023/10/22 02:22:38;;;;;;;3.90;1.00;;;;;;;12.43;100.00;99614.47;5051555;28;20523;-56
2023/10/22 02:25:07;;;;;;;2.65;1.23;;;;;;;12.35;100.00;99617.81;5051405;28;20049;-56
2023/10/22 02:27:36;;;;;;;6.55;1.50;;;;;;;12.30;100.00;99618.25;5054786;28;20049;-50
2023/10/22 02:30:05;;;;;;;3.92;1.08;;;;;;;12.22;100.00;99638.38;5055509;28;20045;-49
2023/10/22 02:32:37;;;;;;;4.65;1.20;;;;;;;12.18;100.00;99636.00;5055466;28;20073;-49
2023/10/22 02:35:06;;;;;;;4.70;1.25;;;;;;;12.14;100.00;99642.53;5055254;28;20055;-48
2023/10/22 02:37:34;;;;;;;3.67;1.20;;;;;;;12.11;100.00;99639.34;5055696;28;20052;-49
2023/10/22 02:40:03;;;;;;;3.58;1.00;;;;;;;12.03;100.00;99647.13;5055288;28;20045;-48
2023/10/22 02:42:33;;;;;;;5.40;1.33;;;;;;;11.92;100.00;99656.78;5054008;28;20061;-48
2023/10/22 02:45:01;;;;;;;5.95;1.50;;;;;;;11.92;100.00;99650.69;5055085;28;20072;-49
2023/10/22 02:47:29;;;;;;;3.85;1.20;;;;;;;11.86;100.00;99659.94;5053901;28;20068;-49
2023/10/22 02:49:59;;;;;;;6.07;1.67;;;;;;;11.84;100.00;99661.91;5055006;28;20045;-51
2023/10/22 02:52:28;;;;;;;5.57;1.30;;;;;;;11.77;100.00;99668.69;5054969;28;20672;-50
2023/10/22 02:54:56;;;;;;;6.20;1.45;;;;;;;11.79;100.00;99679.91;5054956;28;20047;-48
2023/10/22 02:57:24;;;;;;;4.10;1.20;;;;;;;11.75;100.00;99674.09;5053673;28;20508;-47
2023/10/22 02:59:52;;;;;;;3.70;1.42;;;;;;;11.74;100.00;99682.97;5054822;28;20540;-50
2023/10/22 03:02:21;;;;;;;5.22;1.55;;;;;;;11.73;100.00;99677.84;5053404;28;20139;-50
2023/10/22 03:04:50;;;;;;;3.17;1.30;;;;;;;11.71;100.00;99692.94;5054866;28;20427;-51
2023/10/22 03:07:19;;;;;;;6.68;1.60;;;;;;;11.72;100.00;99698.06;5054635;28;20052;-48
2023/10/22 03:09:48;;;;;;;6.60;1.42;;;;;;;11.70;100.00;99693.88;5054778;28;20060;-50
2023/10/22 03:12:18;;;;;;;3.95;1.40;;;;;;;11.69;100.00;99698.34;5054624;28;20068;-49
2023/10/22 03:14:46;;;;;;;6.45;1.50;;;;;;;11.75;100.00;99699.59;5054803;28;20506;-48
2023/10/22 03:17:18;;;;;;;6.03;1.40;;;;;;;11.69;100.00;99714.13;5054533;28;20471;-48
2023/10/22 03:19:46;;;;;;;3.00;1.70;;;;;;;11.66;100.00;99715.22;5069858;28;20131;-49
2023/10/22 03:22:15;;;;;;;8.25;1.58;;;;;;;11.67;100.00;99719.53;5054418;28;20382;-48
2023/10/22 03:24:48;;;;;;;5.07;2.00;;;;;;;11.64;100.00;99716.34;5054446;28;20525;-49
2023/10/22 03:27:20;;;;;;;6.07;1.50;;;;;;;11.69;100.00;99723.84;5053118;28;20045;-50
2023/10/22 03:29:49;;;;;;;3.60;1.58;;;;;;;11.71;100.00;99737.69;5054554;28;20052;-52
2023/10/22 03:32:17;;;;;;;4.57;1.70;;;;;;;11.69;100.00;99745.75;5054081;28;20049;-47
2023/10/22 03:34:45;;;;;;;5.75;1.80;;;;;;;11.69;100.00;99747.56;5053993;28;20041;-46
2023/10/22 03:37:13;;;;;;;5.97;1.67;;;;;;;11.66;100.00;99744.19;5053438;28;20037;-48
2023/10/22 03:39:45;;;;;;;5.13;1.33;;;;;;;11.65;100.00;99753.06;5053442;28;20099;-49
2023/10/22 03:42:13;;;;;;;5.50;1.75;;;;;;;11.66;100.00;99753.91;5054002;28;20063;-47
2023/10/22 03:44:42;;;;;;;6.32;1.73;;;;;;;11.64;100.00;99761.94;5053129;28;20484;-47
2023/10/22 03:47:10;;;;;;;5.30;1.50;;;;;;;11.70;100.00;99767.63;5051008;28;20530;-46
2023/10/22 03:49:38;;;;;;;4.47;1.50;;;;;;;11.69;100.00;99774.72;5051367;28;20099;-49
2023/10/22 03:52:09;;;;;;;4.75;1.50;;;;;;;11.71;100.00;99779.84;5053941;28;20057;-47
2023/10/22 03:54:38;;;;;;;6.22;1.98;;;;;;;11.69;100.00;99787.06;5053926;28;20045;-46
2023/10/22 03:57:08;;;;;;;4.93;1.73;;;;;;;11.76;100.00;99790.81;5053784;28;20098;-47
2023/10/22 03:59:36;;;;;;;5.05;1.70;;;;;;;11.69;100.00;99794.97;5053860;28;20045;-47
2023/10/22 04:02:04;;;;;;;7.53;1.90;;;;;;;11.65;100.00;99805.72;5053571;28;20161;-48
2023/10/22 04:04:33;;;;;;;6.68;2.08;;;;;;;11.66;100.00;99804.78;5048330;28;20152;-48
2023/10/22 04:07:01;;;;;;;7.32;2.15;;;;;;;11.62;100.00;99813.91;5049910;28;20534;-46
2023/10/22 04:09:30;;;;;;;4.35;2.00;;;;;;;11.58;100.00;99822.22;5053574;28;20495;-49
2023/10/22 04:11:58;;;;;;;6.10;2.15;;;;;;;11.59;100.00;99824.72;5053466;28;20044;-48
2023/10/22 04:14:28;;;;;;;5.40;2.00;;;;;;;11.58;100.00;99836.19;5053360;28;20041;-49
2023/10/22 04:16:56;;;;;;;6.63;2.15;;;;;;;11.58;100.00;99845.91;5053394;28;20072;-52
2023/10/22 04:19:26;;;;;;;5.05;2.30;;;;;;;11.59;100.00;99866.84;5053450;28;20049;-51
2023/10/22 04:21:54;;;;;;;5.22;2.40;;;;;;;11.54;100.00;99868.19;5053185;28;20044;-49
2023/10/22 04:24:22;;;;;;;6.68;2.53;;;;;;;11.53;100.00;99863.91;5053003;28;20124;-49
2023/10/22 04:26:50;;;;;;;6.15;2.40;;;;;;;11.49;100.00;99876.47;5053083;28;20056;-49
2023/10/22 04:29:18;;;;;;;5.10;2.30;;;;;;;11.47;100.00;99879.25;5053256;28;20041;-47
2023/10/22 04:31:48;;;;;;;7.63;3.00;;;;;;;11.38;100.00;99879.19;5053243;28;20072;-48
2023/10/22 04:34:18;;;;;;;9.23;3.53;;;;;;;11.36;100.00;99889.84;5052934;28;20396;-49
2023/10/22 04:36:49;;;;;;;6.60;3.20;;;;;;;11.37;100.00;99896.78;5052904;28;20053;-51
2023/10/22 04:39:17;;;;;;;7.93;3.40;;;;;;;11.32;100.00;99894.53;5052926;28;20041;-49
2023/10/22 04:41:45;;;;;;;6.68;3.45;;;;;;;11.37;100.00;99898.56;5050697;28;20041;-51
2023/10/22 04:44:13;;;;;;;7.00;3.22;;;;;;;11.36;100.00;99902.16;5049407;28;20482;-49
2023/10/22 04:46:42;;;;;;;6.00;3.22;;;;;;;11.36;100.00;99908.28;5052650;28;20049;-48
2023/10/22 04:49:11;;;;;;;5.30;2.25;;;;;;;11.32;100.00;99918.22;5052507;28;20075;-50
2023/10/22 04:51:39;;;;;;;5.05;2.70;;;;;;;11.31;100.00;99924.44;5052679;28;20087;-50
2023/10/22 04:54:07;;;;;;;6.72;2.92;;;;;;;11.30;100.00;99937.72;5050789;28;20045;-48
2023/10/22 04:56:36;;;;;;;5.75;3.20;;;;;;;11.33;100.00;99935.69;5049776;28;20120;-48
2023/10/22 04:59:04;;;;;;;6.68;3.88;;;;;;;11.31;100.00;99940.22;5052136;28;20813;-47
2023/10/22 05:01:33;;;;;;;6.60;3.92;;;;;;;11.33;100.00;99942.75;5051216;28;20106;-46
2023/10/22 05:04:01;;;;;;;7.63;4.28;;;;;;;11.27;100.00;99944.06;5051209;28;20045;-57
2023/10/22 05:06:35;;;;;;;8.23;4.32;;;;;;;11.28;100.00;99947.56;5051062;28;20519;-56
2023/10/22 05:09:03;;;;;;;9.32;4.45;;;;;;;11.29;100.00;99954.50;5049188;28;20502;-56
2023/10/22 05:11:32;;;;;;;10.15;4.63;;;;;;;11.29;100.00;99960.59;5051908;28;20101;-57
2023/10/22 05:14:00;;;;;;;8.40;4.82;;;;;;;11.24;100.00;99968.03;5052605;28;20049;-56
2023/10/22 05:16:28;;;;;;;7.85;4.82;;;;;;;11.23;100.00;99976.88;5052176;28;20045;-56
2023/10/22 05:18:56;;;;;;;9.13;4.63;;;;;;;11.26;100.00;99979.28;5052261;28;20057;-56
2023/10/22 05:21:24;;;;;;;9.70;4.63;;;;;;;11.27;100.00;99982.72;5050428;28;20102;-51
2023/10/22 05:23:53;;;;;;;11.50;4.93;;;;;;;11.28;100.00;99989.66;5048645;28;20052;-56
2023/10/22 05:26:22;;;;;;;14.10;5.85;;;;;;;11.23;100.00;100000.56;5050385;28;20052;-56
2023/10/22 05:28:50;;;;;;;11.55;6.45;;;;;;;11.25;100.00;100000.47;5051800;28;20063;-48
2023/10/22 05:31:19;;;;;;;9.93;5.93;;;;;;;11.27;100.00;100004.59;5050396;28;20053;-47
2023/10/22 05:33:48;;;;;;;11.20;6.28;;;;;;;11.22;100.00;100012.06;5051460;28;20099;-51
2023/10/22 05:36:18;;;;;;;11.35;6.25;;;;;;;11.27;100.00;100024.84;5051858;28;20115;-49
2023/10/22 05:38:50;;;;;;;11.38;6.00;;;;;;;11.23;100.00;100034.78;5051922;28;20103;-50
2023/10/22 05:41:22;;;;;;;12.80;5.70;;;;;;;11.24;100.00;100039.09;5050741;28;20106;-50
2023/10/22 05:43:52;;;;;;;11.23;5.70;;;;;;;11.15;100.00;100045.09;5051843;28;20052;-52
2023/10/22 05:46:21;;;;;;;10.10;5.53;;;;;;;11.12;100.00;100047.97;5051665;28;20730;-47
2023/10/22 05:48:49;;;;;;;10.02;5.70;;;;;;;11.06;100.00;100061.63;5051629;28;20047;-48
2023/10/22 05:51:18;;;;;;;9.50;5.78;;;;;;;11.02;100.00;100066.28;5051312;28;20111;-50
2023/10/22 05:53:48;;;;;;;10.60;5.53;;;;;;;10.98;100.00;100060.44;5051707;28;20041;-48
2023/10/22 05:56:17;;;;;;;8.70;5.35;;;;;;;10.97;100.00;100078.97;5050411;28;20548;-50
2023/10/22 05:58:46;;;;;;;8.80;5.32;;;;;;;10.97;100.00;100074.53;5050537;28;20573;-51
2023/10/22 06:01:14;;;;;;;10.30;6.00;;;;;;;10.96;100.00;100078.13;5051031;28;20044;-49
2023/10/22 06:03:43;;;;;;;11.20;6.78;;;;;;;10.97;100.00;100082.41;5051619;28;20107;-49
2023/10/22 06:06:18;;;;;;;13.90;7.10;;;;;;;10.97;100.00;100100.84;5051721;28;20056;-50
2023/10/22 06:08:47;;;;;;;12.27;6.63;;;;;;;10.99;100.00;100101.56;5051679;28;20043;-48
2023/10/22 06:11:16;;;;;;;9.73;6.43;;;;;;;10.97;100.00;100108.72;5051676;28;20411;-48
2023/10/22 06:13:44;;;;;;;15.48;7.40;;;;;;;10.98;100.00;100104.31;5051676;28;20052;-51
2023/10/22 06:16:13;;;;;;;10.02;7.05;;;;;;;10.97;100.00;100116.63;5050046;28;20103;-49
2023/10/22 06:18:42;;;;;;;12.18;6.88;;;;;;;10.96;100.00;100117.59;5051432;28;20037;-49
2023/10/22 06:21:11;;;;;;;12.07;7.30;;;;;;;10.97;100.00;100121.06;5051463;28;20124;-48
2023/10/22 06:23:40;;;;;;;11.43;7.05;;;;;;;10.99;100.00;100120.00;5051344;28;20041;-49
2023/10/22 06:26:10;;;;;;;11.30;7.45;;;;;;;11.00;100.00;100126.06;5051575;28;20500;-48
2023/10/22 06:28:39;;;;;;;13.27;6.50;;;;;;;11.03;100.00;100128.50;5051429;28;20106;-47
2023/10/22 06:31:09;;;;;;;13.02;7.00;;;;;;;11.01;100.00;100129.56;5051392;28;20045;-50
2023/10/22 06:33:40;;;;;;;12.45;6.70;;;;;;;11.01;100.00;100138.28;5051391;28;20151;-48
2023/10/22 06:36:13;;;;;;;12.68;6.82;;;;;;;11.04;100.00;100139.84;5051209;28;20454;-49
2023/10/22 06:38:42;;;;;;;13.27;7.57;;;;;;;11.07;100.00;100150.13;5051146;28;20504;-47
2023/10/22 06:41:16;;;;;;;12.48;7.07;;;;;;;11.08;100.00;100157.06;5051371;28;20844;-48
2023/10/22 06:43:45;;;;;;;11.70;6.45;;;;;;;11.08;100.00;100159.69;5051458;28;20076;-50
2023/10/22 06:46:14;;;;;;;10.35;6.10;;;;;;;11.06;100.00;100165.06;5051306;28;20488;-45
2023/10/22 06:48:44;;;;;;;12.20;6.60;;;;;;;11.09;100.00;100171.91;5051328;28;20438;-49
2023/10/22 06:51:15;;;;;;;11.40;7.03;;;;;;;11.06;100.00;100167.72;5051276;28;20056;-47
2023/10/22 06:53:45;;;;;;;13.07;6.45;;;;;;;11.07;100.00;100177.28;5051193;28;20565;-48
2023/10/22 06:56:13;;;;;;;11.57;6.25;;;;;;;11.04;100.00;100177.50;5051090;28;20056;-46
2023/10/22 06:58:41;;;;;;;14.60;6.40;;;;;;;11.00;100.00;100189.22;5051104;28;20062;-48
2023/10/22 07:01:12;;;;;;;12.77;6.18;;;;;;;11.02;100.00;100191.75;5051193;28;20086;-45
2023/10/22 07:03:43;;;;;;;11.82;6.20;;;;;;;11.04;100.00;100190.66;5051216;28;20052;-48
2023/10/22 07:06:12;;;;;;;10.45;5.53;;;;;;;11.04;100.00;100195.09;5051109;28;20044;-49
2023/10/22 07:08:45;;;;;;;11.27;5.70;;;;;;;11.25;100.00;100200.50;5051135;28;20125;-54
2023/10/22 07:11:14;;;;;;;10.02;5.60;;;;;;;11.31;100.00;100206.09;5051496;28;20080;-45
2023/10/22 07:13:42;;;;;;;10.52;4.72;;;;;;;11.48;100.00;100217.13;5054208;28;20053;-47
2023/10/22 07:16:10;;;;;;;13.93;5.65;;;;;;;11.40;100.00;100215.06;5054673;28;20079;-49
2023/10/22 07:18:39;;;;;;;8.65;4.72;;;;;;;11.28;100.00;100222.13;5054697;28;20495;-46
2023/10/22 07:21:09;;;;;;;9.05;4.63;;;;;;;11.39;100.00;100225.72;5054169;28;20059;-48
2023/10/22 07:23:37;;;;;;;10.80;4.32;;;;;;;11.46;100.00;100235.66;5054172;28;20466;-53
2023/10/22 07:26:05;;;;;;;9.95;4.75;;;;;;;11.81;100.00;100232.03;5054354;28;20049;-56
2023/10/22 07:28:33;;;;;;;9.98;4.05;;;;;;;11.88;100.00;100239.44;5054836;28;20099;-56
2023/10/22 07:31:01;;;;;;;9.18;4.07;;;;;;;12.03;100.00;100243.50;5051829;28;20082;-48
2023/10/22 07:33:29;;;;;;;9.27;4.45;;;;;;;12.03;100.00;100242.69;5051569;28;20044;-51
2023/10/22 07:36:00;;;;;;;8.43;4.20;;;;;;;12.07;100.00;100244.09;5054312;28;20132;-48
2023/10/22 07:38:32;;;;;;;9.73;3.67;;;;;;;12.17;100.00;100256.41;5054301;28;20041;-52
2023/10/22 07:41:00;;;;;;;6.25;3.08;;;;;;;12.57;100.00;100254.09;5053109;28;20126;-52
2023/10/22 07:43:30;;;;;;;7.25;2.75;;;;;;;12.70;100.00;100260.03;5054195;28;20045;-55
2023/10/22 07:46:00;;;;;;;7.35;3.08;;;;;;;12.78;100.00;100264.66;5054204;28;20049;-57
2023/10/22 07:48:28;;;;;;;8.32;3.10;;;;;;;13.13;100.00;100274.03;5054265;28;20411;-56
2023/10/22 07:51:08;;;;;;;8.32;2.80;;;;;;;13.39;100.00;100268.34;5054032;28;20102;-55
2023/10/22 07:53:38;;;;;;;7.13;2.75;;;;;;;13.45;100.00;100276.59;5054020;28;20087;-55
2023/10/22 07:56:07;;;;;;;9.02;2.63;;;;;;;13.46;100.00;100280.91;5053979;28;20124;-56
2023/10/22 07:58:36;;;;;;;7.07;2.70;;;;;;;13.66;100.00;100281.84;5053352;28;20155;-56
2023/10/22 08:01:06;;;;;;;6.43;2.80;;;;;;;13.64;100.00;100282.94;5050673;28;20049;-54
2023/10/22 08:03:35;;;;;;;9.25;2.50;;;;;;;13.58;100.00;100288.75;5052595;28;20470;-55
2023/10/22 08:06:05;;;;;;;7.00;2.28;;;;;;;13.55;100.00;100287.19;5053424;28;20107;-55
2023/10/22 08:08:33;;;;;;;6.18;2.35;;;;;;;13.71;100.00;100288.53;5051219;28;20549;-55
2023/10/22 08:11:06;;;;;;;4.38;2.15;;;;;;;13.66;100.00;100302.97;5051188;28;20806;-55
2023/10/22 08:13:34;;;;;;;5.25;2.45;;;;;;;13.75;100.00;100308.44;5053650;28;20052;-55
2023/10/22 08:16:06;;;;;;;4.03;1.98;;;;;;;13.78;100.00;100308.16;5053420;28;20365;-56
2023/10/22 08:18:35;;;;;;;7.25;2.72;;;;;;;13.93;100.00;100309.44;5051783;28;20091;-54
2023/10/22 08:21:06;;;;;;;4.63;2.10;;;;;;;14.16;100.00;100311.88;5049427;28;20041;-56
2023/10/22 08:23:34;;;;;;;7.07;2.13;;;;;;;14.14;100.00;100306.72;5052938;28;20048;-46
2023/10/22 08:26:04;;;;;;;4.88;1.80;;;;;;;14.11;100.00;100308.78;5053245;28;20072;-46
2023/10/22 08:28:32;;;;;;;6.28;2.20;;;;;;;14.22;100.00;100311.34;5051456;28;20128;-48
2023/10/22 08:31:00;;;;;;;7.70;2.20;;;;;;;14.27;100.00;100317.03;5049694;28;20519;-45
2023/10/22 08:33:29;;;;;;;6.22;2.10;;;;;;;14.37;100.00;100322.38;5051349;28;20072;-46
2023/10/22 08:36:04;;;;;;;6.47;2.00;;;;;;;14.35;100.00;100329.59;5053141;28;20124;-54
2023/10/22 08:38:32;;;;;;;4.82;1.63;;;;;;;14.11;100.00;100328.16;5053053;28;20129;-54
2023/10/22 08:41:01;;;;;;;7.65;1.88;;;;;;;13.86;100.00;100329.47;5053088;28;20048;-54
2023/10/22 08:43:33;;;;;;;7.32;1.88;;;;;;;13.83;100.00;100341.13;5053038;28;20041;-46
2023/10/22 08:46:02;;;;;;;5.75;1.52;;;;;;;13.99;100.00;100332.72;5052973;28;20044;-54
2023/10/22 08:48:33;;;;;;;3.67;1.50;;;;;;;14.40;100.00;100334.47;5052358;28;20049;-54
2023/10/22 08:51:02;;;;;;;6.35;1.50;;;;;;;14.35;100.00;100350.75;5047109;28;20053;-55
2023/10/22 08:53:31;;;;;;;6.57;1.70;;;;;;;14.16;100.00;100336.50;5050013;28;20557;-54
2023/10/22 08:56:01;;;;;;;7.28;1.60;;;;;;;14.06;100.00;100356.81;5050172;28;20110;-55
2023/10/22 08:58:30;;;;;;;4.78;1.50;;;;;;;13.94;100.00;100356.06;5068143;28;20064;-55
2023/10/22 09:00:59;;;;;;;4.25;1.65;;;;;;;13.77;100.00;100354.91;5050891;28;20103;-55
2023/10/22 09:03:30;;;;;;;4.63;1.60;;;;;;;13.68;100.00;100364.44;5048868;28;20775;-46
2023/10/22 09:06:00;;;;;;;5.70;2.05;;;;;;;13.78;100.00;100371.56;5047448;28;20060;-47
2023/10/22 09:08:42;;;;;;;7.20;2.10;;;;;;;13.88;100.00;100375.13;5051094;28;20136;-46
2023/10/22 09:11:14;;;;;;;9.75;1.73;;;;;;;13.84;100.00;100379.00;5052400;28;20056;-45
2023/10/22 09:13:42;;;;;;;5.18;1.73;;;;;;;13.72;100.00;100383.53;5052439;28;20115;-47
2023/10/22 09:16:12;;;;;;;4.97;1.73;;;;;;;13.69;100.00;100386.44;5052260;28;20044;-46
2023/10/22 09:18:44;;;;;;;3.72;1.70;;;;;;;13.74;100.00;100386.03;5050917;28;20139;-47
2023/10/22 09:21:12;;;;;;;2.72;1.50;;;;;;;13.80;100.00;100393.44;5049689;28;20557;-45
2023/10/22 09:23:40;;;;;;;5.22;2.05;;;;;;;13.80;100.00;100393.44;5049165;28;20048;-46
2023/10/22 09:26:11;;;;;;;5.50;1.80;;;;;;;13.99;100.00;100398.81;5052087;28;20053;-45
2023/10/22 09:28:39;;;;;;;7.05;2.13;;;;;;;13.97;100.00;100394.63;5051866;28;20041;-47
2023/10/22 09:31:07;;;;;;;6.15;2.00;;;;;;;13.89;100.00;100397.09;5049719;28;20508;-46
2023/10/22 09:33:38;;;;;;;6.07;2.00;;;;;;;13.89;100.00;100397.09;5048507;28;20128;-46
2023/10/22 09:36:09;;;;;;;4.25;1.63;;;;;;;14.02;100.00;100406.47;5046743;28;20120;-46
2023/10/22 09:38:45;;;;;;;6.97;2.00;;;;;;;14.00;100.00;100407.56;5047433;28;20073;-47
2023/10/22 09:41:14;;;;;;;6.30;1.90;;;;;;;14.03;100.00;100407.31;5051930;28;20098;-48
2023/10/22 09:43:45;;;;;;;5.60;1.80;;;;;;;14.09;100.00;100413.88;5051813;28;20044;-47
2023/10/22 09:46:14;;;;;;;6.13;1.98;;;;;;;14.24;100.00;100417.81;5051805;28;20426;-47
2023/10/22 09:48:45;;;;;;;5.18;1.92;;;;;;;14.23;100.00;100416.13;5052000;28;20049;-46
2023/10/22 09:51:17;;;;;;;8.30;2.00;;;;;;;14.35;100.00;100420.34;5051517;28;20060;-48
2023/10/22 09:53:52;;;;;;;5.70;1.80;;;;;;;14.53;100.00;100415.25;5050458;28;20049;-47
2023/10/22 09:56:21;;;;;;;4.90;1.50;;;;;;;14.50;100.00;100415.50;5050364;28;20056;-48
2023/10/22 09:58:54;;;;;;;4.47;1.80;;;;;;;14.66;100.00;100427.44;5048110;28;20056;-46
2023/10/22 10:01:24;;;;;;;4.93;1.48;;;;;;;14.79;100.00;100419.22;5051450;28;20472;-46
2023/10/22 10:03:58;;;;;;;5.55;1.33;;;;;;;14.99;100.00;100433.31;5051580;28;20045;-46
2023/10/22 10:06:28;;;;;;;4.75;1.65;;;;;;;15.04;100.00;100426.63;5051591;28;20045;-47
2023/10/22 10:08:57;;;;;;;2.90;1.20;;;;;;;15.14;100.00;100426.63;5051639;28;20124;-54
2023/10/22 10:11:28;;;;;;;5.15;1.35;;;;;;;15.20;100.00;100426.06;5052018;28;20041;-54
2023/10/22 10:13:57;;;;;;;4.07;1.58;;;;;;;15.26;100.00;100426.50;5050413;28;20067;-54
2023/10/22 10:16:25;;;;;;;3.35;1.48;;;;;;;15.37;100.00;100435.13;5050844;28;20052;-54
2023/10/22 10:19:06;;;;;;;3.90;1.25;;;;;;;15.33;100.00;100431.06;5047422;28;20056;-56
2023/10/22 10:21:45;;;;;;;3.50;1.30;;;;;;;15.27;100.00;100436.94;5048298;28;20103;-47
2023/10/22 10:24:22;;;;;;;4.70;1.42;;;;;;;15.36;100.00;100445.84;5050973;28;20039;-48
2023/10/22 10:26:55;;;;;;;3.78;1.38;;;;;;;15.43;100.00;100449.59;5051327;28;20041;-47
2023/10/22 10:29:25;;;;;;;6.90;1.50;;;;;;;15.45;100.00;100462.75;5051447;28;20378;-46
2023/10/22 10:31:56;;;;;;;5.03;1.58;;;;;;;15.49;100.00;100454.34;5049093;28;20543;-49
2023/10/22 10:34:34;;;;;;;7.03;1.27;;;;;;;15.62;100.00;100466.47;5047086;28;20147;-49
2023/10/22 10:37:10;;;;;;;4.38;1.63;;;;;;;15.63;100.00;100468.97;5048266;28;20120;-47
2023/10/22 10:39:43;;;;;;;4.10;1.42;;;;;;;15.75;100.00;100472.31;5051345;28;20049;-47
2023/10/22 10:42:12;;;;;;;3.63;0.98;;;;;;;15.83;100.00;100474.28;5051515;28;20048;-46
2023/10/22 10:45:06;;;;;;;4.40;1.60;;;;;;;16.04;100.00;100476.72;5051377;28;20061;-47
2023/10/22 10:47:36;;;;;;;4.80;1.33;;;;;;;16.25;100.00;100479.16;5052646;28;20142;-49
2023/10/22 10:50:07;;;;;;;3.80;1.38;;;;;;;16.04;100.00;100482.03;5055093;28;20052;-49
2023/10/22 10:52:58;;;;;;;4.15;1.20;;;;;;;15.98;100.00;100479.94;5053855;28;20423;-48
2023/10/22 10:55:33;;;;;;;3.15;1.30;;;;;;;15.91;100.00;100479.72;5055145;28;20048;-46
2023/10/22 10:58:02;;;;;;;2.40;0.90;;;;;;;16.00;100.00;100486.78;5055061;28;20049;-48
2023/10/22 11:00:31;;;;;;;7.85;1.42;;;;;;;15.96;100.00;100480.09;5055080;28;20060;-48
2023/10/22 11:03:02;;;;;;;3.17;1.00;;;;;;;16.02;100.00;100482.19;5055239;28;20420;-48
2023/10/22 11:05:36;;;;;;;4.10;1.13;;;;;;;16.14;100.00;100471.38;5050364;28;20052;-48
2023/10/22 11:08:06;;;;;;;5.43;1.35;;;;;;;16.20;100.00;100474.28;5052369;28;20091;-56
2023/10/22 11:10:34;;;;;;;4.15;1.20;;;;;;;16.12;100.00;100473.38;5055100;28;20051;-56
2023/10/22 11:13:04;;;;;;;3.60;1.20;;;;;;;16.13;100.00;100469.72;5055093;28;20075;-56
2023/10/22 11:15:33;;;;;;;6.50;1.73;;;;;;;16.23;100.00;100481.94;5053466;28;20041;-57
2023/10/22 11:18:03;;;;;;;5.93;1.20;;;;;;;16.09;100.00;100484.25;5051554;28;20166;-56
2023/10/22 11:20:34;;;;;;;4.68;1.27;;;;;;;16.11;100.00;100480.47;5054458;28;20049;-56
2023/10/22 11:23:02;;;;;;;4.82;1.10;;;;;;;16.18;100.00;100488.69;5051488;28;20041;-56
2023/10/22 11:25:32;;;;;;;2.75;1.20;;;;;;;16.22;100.00;100485.63;5053170;28;20051;-56
2023/10/22 11:28:00;;;;;;;3.72;1.10;;;;;;;16.35;100.00;100490.56;5054616;28;20049;-56
2023/10/22 11:30:34;;;;;;;5.57;1.10;;;;;;;16.34;100.00;100494.19;5054877;28;20102;-56